Main page

Airports :

Buenos Aires, Argentina

Aeroparque Jorge Newbery

latitude: 34-34S, longitude: 058-25W, elevation: 6 m

Current weather observation

The report was made 53 minutes ago, at 21:00 UTC
Wind 9 kt from the East/Southeast, varying between East/Northeast and South/Southeast
Temperature 27°C
Humidity 42%
Pressure 1015 hPa
Visibility 10 km or more
no clouds below 1500 m and no cumulonimbus

METAR: SABE 012100Z 12009KT 070V150 CAVOK 27/13 Q1015

Time: 18:53 (21:53 UTC)


The report was made 4 hours and 53 minutes ago, at 17:00 UTC
Forecast valid from 01 at 18 UTC to 02 at 18 UTC
Wind 10 kt from the East/Northeast
Visibility 10 km or more
Few clouds at a height of 3000 ft, Towering cumulus.
from 01 at 21 UTC to 01 at 23 UTC
Wind 15 kt from the East
Visibility 10 km or more
Few clouds at a height of 3000 ft

TAF: SABE 011700Z 0118/0218 07010KT 9999 FEW030TCU TX30/0219Z TN18/0210Z BECMG 0121/0123 09015KT 9999 FEW030


Weather observations and forecasts of more than 4000 airports (METAR and TAF reports).

The available stations are represented by yellow and red dots on the map.

Hover mouse over dot to see the name of the station.

Then click to see weather observations and forecasts.

To change the map : click on the green buttons with a black cross to zoom in, on the green button with a dash to zoom out, or on the green arrows for adjacent maps.